Time;durP1;ratioP1;P1;durP2;ratioP2;P2;SDS_P1;SDS_P2;PMS_P1;PMS_P2;Temp;Humidity;BMP_temperature;BMP_pressure;BME280_temperature;BME280_humidity;BME280_pressure;Samples;Min_cycle;Max_cycle;Signal;HPM_P1;HPM_P2
2023/01/08 00:00:05;;;;;;;;;3.25;2.00;;;;;11.60;80.13;100278.41;4937733;28;52942;-84
2023/01/08 00:02:31;;;;;;;;;2.50;2.00;;;;;11.60;79.85;100278.41;4939126;28;46562;-84
2023/01/08 00:04:56;;;;;;;;;1.00;1.00;;;;;11.61;80.19;100274.91;4937931;28;45398;-84
2023/01/08 00:07:21;;;;;;;;;6.25;2.00;;;;;11.57;80.09;100275.09;4938000;28;45376;-84
2023/01/08 00:09:49;;;;;;;;;1.00;1.00;;;;;11.55;80.30;100272.56;4938157;28;64020;-84
2023/01/08 00:12:14;;;;;;;;;2.00;2.00;;;;;11.55;80.04;100264.75;4937400;28;46391;-84
2023/01/08 00:14:40;;;;;;;;;1.50;0.50;;;;;11.55;80.08;100266.47;4938826;28;45394;-84
2023/01/08 00:17:05;;;;;;;;;5.00;0.00;;;;;11.54;80.58;100252.63;4938261;28;60893;-84
2023/01/08 00:19:31;;;;;;;;;2.25;2.00;;;;;11.54;80.36;100256.97;4953968;28;45556;-84
2023/01/08 00:21:56;;;;;;;;;10.25;3.00;;;;;11.55;80.42;100254.31;4953646;28;45703;-84
2023/01/08 00:24:21;;;;;;;;;1.50;1.50;;;;;11.53;80.16;100248.28;4953323;28;53449;-84
2023/01/08 00:26:47;;;;;;;;;2.00;2.00;;;;;11.53;80.70;100252.66;4936514;28;61331;-84
2023/01/08 00:29:12;;;;;;;;;3.75;2.50;;;;;11.55;80.40;100253.44;4938696;28;50478;-83
2023/01/08 00:31:37;;;;;;;;;2.00;2.00;;;;;11.55;80.34;100258.66;4953438;28;45500;-84
2023/01/08 00:34:03;;;;;;;;;6.00;3.00;;;;;11.52;80.59;100261.41;4937330;28;45924;-83
2023/01/08 00:36:28;;;;;;;;;5.00;3.00;;;;;11.51;80.30;100265.75;4938001;28;61383;-84
2023/01/08 00:38:53;;;;;;;;;3.00;3.00;;;;;11.51;80.80;100260.53;4953100;28;53056;-84
2023/01/08 00:41:19;;;;;;;;;2.00;2.00;;;;;11.52;80.31;100272.69;4936857;28;47367;-84
2023/01/08 00:43:44;;;;;;;;;4.75;2.50;;;;;11.53;80.61;100258.72;4957639;28;54031;-84
2023/01/08 00:46:09;;;;;;;;;3.50;2.00;;;;;11.56;80.17;100244.72;4957561;28;53924;-84
2023/01/08 00:48:38;;;;;;;;;1.75;1.75;;;;;11.50;79.68;100251.03;4957818;28;45388;-84
2023/01/08 00:51:05;;;;;;;;;2.75;2.00;;;;;11.50;80.06;100235.41;4955772;28;46556;-84
2023/01/08 00:53:30;;;;;;;;;3.75;2.00;;;;;11.52;80.19;100233.59;4940056;28;46056;-83
2023/01/08 00:56:03;;;;;;;;;2.75;1.25;;;;;11.53;79.87;100224.00;4955670;28;51131;-84
2023/01/08 00:58:29;;;;;;;;;3.50;2.00;;;;;11.51;80.12;100221.44;4957647;28;45372;-84
2023/01/08 01:00:54;;;;;;;;;3.00;1.00;;;;;11.48;79.95;100212.91;4940031;28;47086;-84
2023/01/08 01:03:19;;;;;;;;;3.00;2.00;;;;;11.45;80.48;100215.66;4956383;28;45420;-84
2023/01/08 01:05:45;;;;;;;;;1.75;1.75;;;;;11.45;80.29;100213.88;4956828;28;59074;-84
2023/01/08 01:08:10;;;;;;;;;4.25;2.00;;;;;11.42;80.14;100216.59;4956524;28;60667;-82
2023/01/08 01:10:38;;;;;;;;;5.00;2.00;;;;;11.42;79.99;100198.38;4955524;28;61514;-83
2023/01/08 01:13:03;;;;;;;;;7.00;2.75;;;;;11.41;80.37;100204.50;4956045;28;45650;-83
2023/01/08 01:15:28;;;;;;;;;3.00;1.25;;;;;11.41;79.82;100223.59;4937188;28;45504;-83
2023/01/08 01:17:54;;;;;;;;;3.75;2.00;;;;;11.38;79.72;100215.88;4952694;28;65821;-83
2023/01/08 01:20:19;;;;;;;;;5.50;2.00;;;;;11.35;79.59;100210.81;4938230;28;47278;-82
2023/01/08 01:22:44;;;;;;;;;2.00;1.50;;;;;11.32;80.00;100210.94;4937552;28;45626;-82
2023/01/08 01:25:10;;;;;;;;;3.50;2.00;;;;;11.31;79.74;100216.19;4938149;28;45340;-83
2023/01/08 01:27:35;;;;;;;;;4.75;2.00;;;;;11.28;80.01;100211.97;4937318;28;54507;-82
2023/01/08 01:30:01;;;;;;;;;2.25;2.00;;;;;11.31;80.18;100216.19;4937007;28;64019;-83
2023/01/08 01:32:27;;;;;;;;;2.00;2.00;;;;;11.31;79.80;100217.06;4937835;28;45385;-83
2023/01/08 01:34:52;;;;;;;;;6.00;2.00;;;;;11.32;79.76;100216.16;4952781;28;45337;-83
2023/01/08 01:37:17;;;;;;;;;1.00;1.00;;;;;11.32;79.62;100216.16;4937142;28;54714;-84
2023/01/08 01:39:43;;;;;;;;;2.75;1.75;;;;;11.33;79.56;100211.78;4937449;28;46584;-83
2023/01/08 01:44:56;;;;;;;;;1.75;1.00;;;;;11.29;79.44;100221.50;4936874;28;45452;-83
2023/01/08 01:47:35;;;;;;;;;2.00;2.00;;;;;11.29;79.80;100225.84;4935795;28;59228;-83
2023/01/08 01:50:20;;;;;;;;;4.00;1.00;;;;;11.26;79.56;100229.44;4936265;28;46526;-83
2023/01/08 01:53:00;;;;;;;;;2.25;1.00;;;;;11.20;79.39;100219.25;4936034;28;45642;-83
2023/01/08 01:55:26;;;;;;;;;0.75;0.75;;;;;11.19;79.55;100241.00;4936394;28;45451;-83
2023/01/08 01:58:00;;;;;;;;;3.50;1.00;;;;;11.17;79.57;100235.84;4937690;28;45402;-83
2023/01/08 02:00:26;;;;;;;;;1.25;1.25;;;;;11.15;79.48;100234.22;4936324;28;46361;-84
2023/01/08 02:02:52;;;;;;;;;2.00;2.00;;;;;11.10;79.19;100233.53;4952222;28;45645;-83
2023/01/08 02:05:18;;;;;;;;;3.00;1.50;;;;;11.10;79.48;100236.97;4936999;28;56751;-83
2023/01/08 02:08:10;;;;;;;;;2.75;1.75;;;;;11.08;79.45;100233.59;4935209;28;64327;-83
2023/01/08 02:10:57;;;;;;;;;2.00;2.00;;;;;11.08;79.27;100237.97;4934997;28;46248;-84
2023/01/08 02:13:28;;;;;;;;;1.25;1.25;;;;;11.05;79.32;100246.75;4935889;28;45537;-83
2023/01/08 02:16:00;;;;;;;;;1.00;1.00;;;;;11.04;79.57;100238.06;4952404;28;45348;-83
2023/01/08 02:18:43;;;;;;;;;4.75;2.00;;;;;11.04;79.22;100239.84;4952400;28;45594;-84
2023/01/08 02:21:21;;;;;;;;;1.75;1.00;;;;;11.04;79.38;100238.06;4951940;28;47045;-83
2023/01/08 02:24:01;;;;;;;;;2.00;0.75;;;;;11.04;78.80;100243.28;4952129;28;45722;-83
2023/01/08 02:26:34;;;;;;;;;0.00;0.00;;;;;11.04;78.71;100238.06;4952298;28;45354;-83
2023/01/08 02:29:06;;;;;;;;;2.25;1.00;;;;;11.04;78.98;100242.44;4952226;28;45363;-83
2023/01/08 02:31:33;;;;;;;;;2.00;1.00;;;;;11.01;78.79;100234.75;4936962;28;45576;-83
2023/01/08 02:33:59;;;;;;;;;2.75;0.25;;;;;10.97;78.76;100241.81;4952241;28;45316;-83
2023/01/08 02:36:27;;;;;;;;;0.00;0.00;;;;;10.99;78.81;100242.59;4951762;28;45326;-83
2023/01/08 02:39:20;;;;;;;;;0.50;0.50;;;;;11.01;79.01;100240.81;4936938;28;45530;-84
2023/01/08 02:41:48;;;;;;;;;4.25;0.50;;;;;11.00;78.65;100233.91;4951672;28;46808;-83
2023/01/08 02:44:20;;;;;;;;;4.75;1.75;;;;;10.99;78.87;100232.19;4951867;28;45770;-84
2023/01/08 02:46:49;;;;;;;;;0.25;0.25;;;;;10.97;78.96;100243.59;4936041;28;45472;-83
2023/01/08 02:49:15;;;;;;;;;5.00;1.00;;;;;10.95;78.89;100238.44;4937225;28;45368;-83
2023/01/08 02:51:50;;;;;;;;;6.50;1.25;;;;;10.94;79.07;100231.53;4935053;28;54156;-83
2023/01/08 02:54:19;;;;;;;;;1.25;1.25;;;;;10.91;79.16;100231.66;4935529;28;45376;-84
2023/01/08 02:56:50;;;;;;;;;3.25;1.00;;;;;10.90;79.40;100226.50;4935678;28;45204;-84
2023/01/08 02:59:16;;;;;;;;;2.00;1.00;;;;;10.88;79.67;100228.31;4935613;28;45457;-83
2023/01/08 03:01:42;;;;;;;;;2.75;1.00;;;;;10.85;78.91;100217.09;4934884;28;64661;-84
2023/01/08 03:04:19;;;;;;;;;2.00;1.25;;;;;10.84;79.31;100212.78;4936514;28;51609;-86
2023/01/08 03:06:44;;;;;;;;;1.00;1.00;;;;;10.80;79.14;100216.44;4935715;28;45407;-83
2023/01/08 03:09:10;;;;;;;;;1.00;1.00;;;;;10.79;79.43;100216.47;4936446;28;57962;-83
2023/01/08 03:11:40;;;;;;;;;3.50;0.75;;;;;10.79;79.76;100217.34;4950911;28;60504;-83
2023/01/08 03:14:09;;;;;;;;;0.50;0.25;;;;;10.78;79.67;100213.03;4937586;28;45776;-84
2023/01/08 03:16:37;;;;;;;;;1.50;1.00;;;;;10.81;80.04;100205.13;4954914;28;45454;-83
2023/01/08 03:19:27;;;;;;;;;0.75;0.75;;;;;10.88;79.76;100210.91;4939606;28;45398;-83
2023/01/08 03:21:52;;;;;;;;;1.00;1.00;;;;;10.87;79.72;100211.00;4954750;28;46483;-83
2023/01/08 03:24:25;;;;;;;;;1.75;1.00;;;;;10.84;80.01;100204.16;4939142;28;58224;-83
2023/01/08 03:26:53;;;;;;;;;1.00;1.00;;;;;10.82;79.88;100199.00;4938557;28;45404;-83
2023/01/08 03:29:20;;;;;;;;;1.00;0.00;;;;;10.82;79.79;100196.38;4938647;28;45677;-83
2023/01/08 03:31:46;;;;;;;;;1.00;1.00;;;;;10.86;79.91;100204.94;4954350;28;45868;-83
2023/01/08 03:34:13;;;;;;;;;3.50;1.00;;;;;10.86;79.96;100202.31;4954228;28;45790;-83
2023/01/08 03:36:40;;;;;;;;;2.50;0.00;;;;;10.90;80.22;100195.25;4954629;28;45544;-83
2023/01/08 03:39:15;;;;;;;;;2.50;0.00;;;;;10.90;79.71;100203.94;4954518;28;45290;-84
2023/01/08 03:41:41;;;;;;;;;1.00;0.00;;;;;10.90;79.90;100198.72;4942560;28;46028;-83
2023/01/08 03:44:06;;;;;;;;;1.00;1.00;;;;;10.89;80.13;100199.63;4957473;28;45350;-83
2023/01/08 03:46:35;;;;;;;;;1.00;0.00;;;;;10.91;80.10;100196.97;4958307;28;60111;-83
2023/01/08 03:49:01;;;;;;;;;1.00;1.00;;;;;10.93;79.85;100189.94;4957589;28;45446;-83
2023/01/08 03:51:26;;;;;;;;;1.75;1.00;;;;;10.96;79.98;100206.28;4973584;28;47994;-83
2023/01/08 03:53:54;;;;;;;;;3.50;1.00;;;;;10.96;80.09;100188.06;4956562;28;65061;-83
2023/01/08 03:56:20;;;;;;;;;0.50;0.00;;;;;10.96;79.98;100185.44;4957624;28;45552;-83
2023/01/08 03:58:46;;;;;;;;;1.00;0.00;;;;;10.96;79.91;100180.25;4958278;28;54024;-83
2023/01/08 04:01:11;;;;;;;;;0.00;0.00;;;;;10.98;79.70;100180.19;4957457;28;45463;-83
2023/01/08 04:03:36;;;;;;;;;0.50;0.00;;;;;10.97;79.63;100171.50;4958222;28;45243;-83
2023/01/08 04:06:02;;;;;;;;;0.50;0.50;;;;;10.96;79.90;100174.19;4957608;28;45454;-83
2023/01/08 04:08:27;;;;;;;;;0.00;0.00;;;;;10.99;80.55;100167.06;4958700;28;45454;-83
2023/01/08 04:10:53;;;;;;;;;0.00;0.00;;;;;11.00;80.14;100163.56;4957595;28;67353;-83
2023/01/08 04:13:18;;;;;;;;;1.25;1.00;;;;;11.01;79.88;100152.28;4956558;28;45205;-84
2023/01/08 04:15:50;;;;;;;;;0.00;0.00;;;;;11.02;80.05;100158.31;4953331;28;62424;-83
2023/01/08 04:18:16;;;;;;;;;0.00;0.00;;;;;11.02;79.92;100159.16;4938856;28;45340;-83
2023/01/08 04:20:48;;;;;;;;;4.00;0.25;;;;;11.02;79.89;100148.75;4938793;28;46351;-83
2023/01/08 04:23:13;;;;;;;;;1.00;0.00;;;;;11.01;79.96;100141.84;4939013;28;45471;-83
2023/01/08 04:25:39;;;;;;;;;0.00;0.00;;;;;11.02;79.67;100140.09;4936734;28;45408;-83
2023/01/08 04:28:04;;;;;;;;;0.00;0.00;;;;;11.02;79.63;100124.47;4953773;28;45451;-84
2023/01/08 04:30:30;;;;;;;;;1.00;0.00;;;;;11.01;79.87;100138.38;4938595;28;55509;-83
2023/01/08 04:32:55;;;;;;;;;2.00;0.00;;;;;10.98;79.42;100130.72;4953380;28;45468;-84
2023/01/08 04:35:20;;;;;;;;;2.50;0.00;;;;;10.97;79.70;100121.19;4953808;28;45360;-84
2023/01/08 04:37:46;;;;;;;;;1.00;1.00;;;;;10.97;79.49;100122.03;4953612;28;45468;-83
2023/01/08 04:40:11;;;;;;;;;1.25;1.00;;;;;10.96;80.01;100114.31;4953100;28;58153;-83
2023/01/08 04:42:36;;;;;;;;;1.50;0.00;;;;;10.92;80.94;100120.53;4949123;28;45348;-83
2023/01/08 04:45:02;;;;;;;;;0.00;0.00;;;;;10.86;81.45;100111.19;4956114;28;60935;-83
2023/01/08 04:47:27;;;;;;;;;1.00;0.00;;;;;10.79;82.15;100113.22;4956289;28;45521;-83
2023/01/08 04:49:53;;;;;;;;;0.00;0.00;;;;;10.70;83.00;100112.72;4956779;28;72300;-82
2023/01/08 04:52:18;;;;;;;;;1.00;0.00;;;;;10.62;84.00;100111.28;4955968;28;64355;-83
2023/01/08 04:54:43;;;;;;;;;0.00;0.00;;;;;10.57;84.69;100105.41;4939586;28;66108;-83
2023/01/08 04:57:09;;;;;;;;;0.00;0.00;;;;;10.48;84.18;100108.34;4956866;28;45387;-82
2023/01/08 04:59:34;;;;;;;;;6.00;1.00;;;;;10.42;84.30;100113.81;4956298;28;46677;-82
2023/01/08 05:02:00;;;;;;;;;0.75;0.75;;;;;10.36;84.65;100104.44;4957336;28;45316;-82
2023/01/08 05:04:25;;;;;;;;;1.00;1.00;;;;;10.32;84.54;100108.09;4957744;28;45217;-82
2023/01/08 05:06:51;;;;;;;;;0.25;0.00;;;;;10.30;84.80;100106.44;4957643;28;45400;-82
2023/01/08 05:09:16;;;;;;;;;2.00;0.75;;;;;10.22;85.21;100096.31;4955826;28;65302;-81
2023/01/08 05:11:42;;;;;;;;;0.00;0.00;;;;;10.19;84.66;100089.47;4956741;28;64462;-82
2023/01/08 05:14:07;;;;;;;;;0.00;0.00;;;;;10.18;85.08;100092.13;4949274;28;45366;-82
2023/01/08 05:16:32;;;;;;;;;0.00;0.00;;;;;10.13;84.94;100089.69;4952818;28;45352;-82
2023/01/08 05:18:58;;;;;;;;;3.50;0.50;;;;;10.12;85.08;100102.75;4937854;28;45400;-82
2023/01/08 05:21:23;;;;;;;;;0.50;0.00;;;;;10.09;85.13;100098.53;4937322;28;66855;-81
2023/01/08 05:23:48;;;;;;;;;1.25;0.25;;;;;10.13;85.24;100083.66;4952472;28;55580;-82
2023/01/08 05:26:14;;;;;;;;;1.25;0.00;;;;;10.20;85.25;100075.56;4936658;28;45629;-82
2023/01/08 05:28:40;;;;;;;;;0.00;0.00;;;;;10.23;85.34;100085.84;4936798;28;46364;-82
2023/01/08 05:31:05;;;;;;;;;0.00;0.00;;;;;10.25;85.15;100086.66;4937483;28;45445;-82
2023/01/08 05:33:31;;;;;;;;;0.00;0.00;;;;;10.24;86.12;100097.09;4953046;28;45301;-83
2023/01/08 05:35:56;;;;;;;;;1.00;1.00;;;;;10.15;87.93;100137.28;4937521;28;45499;-83
2023/01/08 05:38:22;;;;;;;;;0.00;0.00;;;;;10.01;87.77;100158.63;4936368;28;47094;-84
2023/01/08 05:40:51;;;;;;;;;0.00;0.00;;;;;9.77;86.50;100159.47;4952647;28;45337;-84
2023/01/08 05:43:16;;;;;;;;;0.00;0.00;;;;;9.50;85.37;100142.16;4937956;28;45434;-84
2023/01/08 05:45:41;;;;;;;;;0.00;0.00;;;;;9.34;85.73;100114.16;4937017;28;52836;-83
2023/01/08 05:48:07;;;;;;;;;0.00;0.00;;;;;9.22;86.04;100125.81;4937468;28;46389;-83
2023/01/08 05:50:33;;;;;;;;;0.00;0.00;;;;;9.09;85.39;100112.38;4937599;28;45462;-83
2023/01/08 05:52:58;;;;;;;;;0.00;0.00;;;;;9.03;86.17;100120.38;4937796;28;45367;-83
2023/01/08 05:55:24;;;;;;;;;1.00;0.00;;;;;8.93;85.31;100119.81;4936044;28;51367;-81
2023/01/08 05:57:49;;;;;;;;;0.00;0.00;;;;;8.87;85.62;100109.63;4935803;28;58050;-82
2023/01/08 06:00:15;;;;;;;;;0.00;0.00;;;;;8.84;85.30;100104.53;4936452;28;68837;-82
2023/01/08 06:02:45;;;;;;;;;0.00;0.00;;;;;8.79;85.01;100109.88;4952545;28;45368;-82
2023/01/08 06:05:10;;;;;;;;;0.00;0.00;;;;;8.78;84.56;100110.75;4937728;28;45229;-82
2023/01/08 06:07:36;;;;;;;;;0.00;0.00;;;;;8.76;83.88;100119.50;4937021;28;67180;-81
2023/01/08 06:10:01;;;;;;;;;0.00;0.00;;;;;8.75;83.12;100116.06;4937062;28;57020;-82
2023/01/08 06:12:26;;;;;;;;;0.00;0.00;;;;;8.76;83.79;100115.16;4936561;28;65709;-82
2023/01/08 06:14:52;;;;;;;;;0.00;0.00;;;;;8.76;82.92;100119.50;4937007;28;45237;-81
2023/01/08 06:17:17;;;;;;;;;1.00;0.00;;;;;8.76;82.85;100116.91;4936007;28;48035;-82
2023/01/08 06:19:45;;;;;;;;;1.00;0.00;;;;;8.74;82.63;100127.34;4935383;28;62833;-81
2023/01/08 06:22:10;;;;;;;;;1.50;0.00;;;;;8.73;82.20;100130.84;4937475;28;45799;-82
2023/01/08 06:24:36;;;;;;;;;0.00;0.00;;;;;8.72;82.25;100127.38;4936034;28;45401;-82
2023/01/08 06:27:01;;;;;;;;;1.00;0.00;;;;;8.74;82.30;100132.53;4936345;28;70433;-82
2023/01/08 06:29:26;;;;;;;;;0.50;0.00;;;;;8.73;82.41;100133.44;4951309;28;60552;-82
2023/01/08 06:31:51;;;;;;;;;0.00;0.00;;;;;8.67;81.66;100125.81;4951666;28;58440;-82
2023/01/08 06:34:17;;;;;;;;;0.00;0.00;;;;;8.68;82.30;100127.53;4937188;28;45416;-82
2023/01/08 06:36:42;;;;;;;;;0.00;0.00;;;;;8.66;82.29;100131.94;4951861;28;46274;-81
2023/01/08 06:39:08;;;;;;;;;0.00;0.00;;;;;8.64;82.32;100136.31;4936266;28;67149;-81
2023/01/08 06:41:33;;;;;;;;;0.00;0.00;;;;;8.61;82.41;100141.59;4936568;28;55711;-81
2023/01/08 06:43:58;;;;;;;;;0.00;0.00;;;;;8.59;82.76;100143.38;4935713;28;45297;-82
2023/01/08 06:46:24;;;;;;;;;0.00;0.00;;;;;8.56;82.23;100148.66;4936296;28;70491;-82
2023/01/08 06:48:49;;;;;;;;;0.00;0.00;;;;;8.53;82.85;100147.00;4938204;28;62131;-82
2023/01/08 06:51:14;;;;;;;;;0.00;0.00;;;;;8.50;82.81;100140.16;4939659;28;63775;-82
2023/01/08 06:53:40;;;;;;;;;1.00;0.00;;;;;8.47;83.54;100150.63;4939555;28;65434;-81
2023/01/08 06:56:08;;;;;;;;;0.00;0.00;;;;;8.45;83.34;100144.66;4938993;28;46272;-82
2023/01/08 06:58:33;;;;;;;;;0.00;0.00;;;;;8.45;84.01;100149.84;4940159;28;45758;-82
2023/01/08 07:00:59;;;;;;;;;0.00;0.00;;;;;8.46;84.33;100143.75;4939842;28;50196;-81
2023/01/08 07:03:24;;;;;;;;;1107.25;1107.25;;;;;8.51;84.25;100134.09;4939107;28;45394;-82
2023/01/08 07:05:49;;;;;;;;;0.00;0.00;;;;;8.56;84.77;100136.53;4959579;28;45891;-81
2023/01/08 07:08:16;;;;;;;;;0.00;0.00;;;;;8.60;84.83;100129.50;4959209;28;45428;-81
2023/01/08 07:10:42;;;;;;;;;0.00;0.00;;;;;8.61;84.67;100132.06;4959237;28;45300;-81
2023/01/08 07:13:08;;;;;;;;;0.50;0.00;;;;;8.64;84.78;100131.97;4958137;28;45370;-81
2023/01/08 07:15:35;;;;;;;;;0.00;0.00;;;;;8.67;84.92;100129.28;4959137;28;46980;-82
2023/01/08 07:18:06;;;;;;;;;0.00;0.00;;;;;8.69;85.46;100135.28;4959204;28;45882;-82
2023/01/08 07:20:32;;;;;;;;;0.00;0.00;;;;;8.72;85.13;100137.75;4959468;28;45288;-86
2023/01/08 07:23:09;;;;;;;;;0.00;0.00;;;;;8.75;85.54;100134.25;4958986;28;45753;-90
2023/01/08 07:25:37;;;;;;;;;0.00;0.00;;;;;8.78;85.29;100131.53;4959244;28;45573;-90
2023/01/08 07:28:05;;;;;;;;;0.00;0.00;;;;;8.82;85.20;100138.34;4959495;28;45363;-90
2023/01/08 07:30:30;;;;;;;;;0.00;0.00;;;;;8.90;85.57;100135.50;4959852;28;45638;-90
2023/01/08 07:33:00;;;;;;;;;0.00;0.00;;;;;8.96;86.02;100140.50;4959548;28;45669;-92
2023/01/08 07:35:25;;;;;;;;;0.00;0.00;;;;;8.98;85.78;100136.09;4959431;28;45609;-88
2023/01/08 07:37:51;;;;;;;;;0.00;0.00;;;;;8.99;85.74;100129.16;4958130;28;45624;-88
2023/01/08 07:40:16;;;;;;;;;0.00;0.00;;;;;8.97;85.83;100134.41;4958028;28;45486;-87
2023/01/08 07:42:55;;;;;;;;;0.00;0.00;;;;;8.96;85.30;100126.69;4959606;28;45540;-88
2023/01/08 07:45:23;;;;;;;;;0.00;0.00;;;;;8.96;85.82;100119.72;4942289;28;48345;-90
2023/01/08 07:47:53;;;;;;;;;0.00;0.00;;;;;8.96;85.87;100113.69;4959488;28;45639;-90
2023/01/08 07:50:19;;;;;;;;;0.00;0.00;;;;;8.97;85.99;100120.56;4958283;28;45332;-87
2023/01/08 07:52:46;;;;;;;;;1.25;0.00;;;;;8.94;85.99;100121.53;4957819;28;45526;-90
2023/01/08 07:55:12;;;;;;;;;1.00;0.00;;;;;8.94;85.65;100105.94;4957668;28;47197;-86
2023/01/08 07:57:39;;;;;;;;;0.75;0.00;;;;;8.93;86.13;100122.41;4941846;28;45414;-87
2023/01/08 08:00:06;;;;;;;;;0.00;0.00;;;;;8.91;85.78;100113.81;4941044;28;45433;-87
2023/01/08 08:02:32;;;;;;;;;0.00;0.00;;;;;8.89;85.55;100108.69;4958730;28;45264;-87
2023/01/08 08:05:02;;;;;;;;;1.00;0.00;;;;;8.89;86.18;100110.44;4957873;28;45876;-89
2023/01/08 08:07:29;;;;;;;;;0.00;0.00;;;;;8.86;85.95;100105.38;4957419;28;45594;-86
2023/01/08 08:09:55;;;;;;;;;1.00;0.00;;;;;8.88;86.15;100108.75;4957430;28;45365;-88
2023/01/08 08:12:23;;;;;;;;;1.00;0.00;;;;;8.88;86.35;100106.16;4941505;28;45532;-90
2023/01/08 08:14:48;;;;;;;;;1.00;1.00;;;;;8.90;86.43;100104.34;4957997;28;45557;-88
2023/01/08 08:17:13;;;;;;;;;0.00;0.00;;;;;8.90;86.46;100099.16;4957398;28;46021;-88
2023/01/08 08:19:42;;;;;;;;;0.00;0.00;;;;;8.89;86.37;100094.88;4958738;28;45349;-87
2023/01/08 08:22:08;;;;;;;;;0.50;0.00;;;;;8.89;86.03;100084.47;4957578;28;45388;-88
2023/01/08 08:24:33;;;;;;;;;0.75;0.00;;;;;8.91;86.72;100087.88;4956688;28;45697;-87
2023/01/08 08:26:59;;;;;;;;;0.00;0.00;;;;;8.92;87.16;100087.00;4957765;28;45284;-85
2023/01/08 08:29:26;;;;;;;;;0.00;0.00;;;;;8.92;86.87;100079.19;4956817;28;45272;-86
2023/01/08 08:31:54;;;;;;;;;2.00;0.25;;;;;8.94;87.34;100081.75;4956954;28;45419;-86
2023/01/08 08:34:21;;;;;;;;;0.00;0.00;;;;;8.94;86.78;100082.59;4940850;28;47472;-85
2023/01/08 08:36:47;;;;;;;;;0.25;0.00;;;;;8.96;86.99;100075.59;4957653;28;45302;-86
2023/01/08 08:39:14;;;;;;;;;0.50;0.00;;;;;8.98;87.24;100080.75;4956710;28;45373;-86
2023/01/08 08:41:41;;;;;;;;;2.25;0.50;;;;;9.02;87.19;100077.16;4959013;28;45540;-86
2023/01/08 08:44:07;;;;;;;;;0.00;0.00;;;;;9.08;87.01;100063.94;4957940;28;46357;-87
2023/01/08 08:46:50;;;;;;;;;0.00;0.00;;;;;9.08;86.54;100063.94;4959978;28;45453;-90
2023/01/08 08:49:18;;;;;;;;;0.00;0.00;;;;;9.11;86.87;100064.69;4942213;28;45420;-90
2023/01/08 08:51:43;;;;;;;;;0.50;0.00;;;;;9.17;86.81;100062.81;4958226;28;45512;-87
2023/01/08 08:54:10;;;;;;;;;0.00;0.00;;;;;9.20;86.72;100063.53;4956892;28;45445;-86
2023/01/08 08:56:35;;;;;;;;;0.00;0.00;;;;;9.22;86.34;100058.31;4958017;28;45761;-88
2023/01/08 08:59:01;;;;;;;;;0.25;0.00;;;;;9.24;86.65;100054.75;4956402;28;45532;-88
2023/01/08 09:01:26;;;;;;;;;0.00;0.00;;;;;9.25;86.63;100058.22;4956908;28;45405;-87
2023/01/08 09:03:51;;;;;;;;;0.00;0.00;;;;;9.28;86.53;100061.53;4956340;28;45355;-88
2023/01/08 09:06:17;;;;;;;;;0.00;0.00;;;;;9.33;86.63;100058.78;4956926;28;45364;-88
2023/01/08 09:08:43;;;;;;;;;0.00;0.00;;;;;9.39;86.72;100058.56;4956981;28;45301;-87
2023/01/08 09:11:09;;;;;;;;;0.00;0.00;;;;;9.44;86.51;100056.66;4954403;28;45261;-86
2023/01/08 09:13:36;;;;;;;;;1.50;0.00;;;;;9.48;85.94;100063.44;4955643;28;46261;-86
2023/01/08 09:16:02;;;;;;;;;0.00;0.00;;;;;9.52;86.12;100056.38;4955803;28;45690;-86
2023/01/08 09:18:27;;;;;;;;;1.00;0.00;;;;;9.50;86.12;100056.44;4955851;28;45442;-85
2023/01/08 09:20:54;;;;;;;;;0.50;0.00;;;;;9.49;85.85;100056.50;4956022;28;45299;-86
2023/01/08 09:23:20;;;;;;;;;0.75;0.00;;;;;9.48;85.99;100049.59;4955757;28;46348;-86
2023/01/08 09:25:45;;;;;;;;;1.00;0.00;;;;;9.47;85.56;100046.16;4956378;28;45359;-86
2023/01/08 09:28:11;;;;;;;;;0.00;0.00;;;;;9.44;85.82;100046.25;4956067;28;45906;-87
2023/01/08 09:30:37;;;;;;;;;0.00;0.00;;;;;9.39;85.81;100042.97;4956278;28;45361;-89
2023/01/08 09:33:08;;;;;;;;;0.00;0.00;;;;;9.39;85.72;100040.38;4956850;28;48421;-88
2023/01/08 09:36:19;;;;;;;;;0.00;0.00;;;;;9.41;85.63;100045.53;4958130;28;45472;-91
2023/01/08 09:39:09;;;;;;;;;0.00;0.00;;;;;9.42;85.57;100039.44;4954414;28;45419;-89
2023/01/08 09:41:52;;;;;;;;;0.00;0.00;;;;;9.48;85.46;100042.66;4903180;28;45475;-89
2023/01/08 09:44:30;;;;;;;;;1.50;0.00;;;;;9.62;85.09;100041.31;4901907;28;46752;-89
2023/01/08 09:47:01;;;;;;;;;1.00;0.00;;;;;9.69;84.87;100054.03;4916548;28;45670;-89
2023/01/08 09:50:09;;;;;;;;;;;;;;;;;;;;;
2023/01/08 09:52:59;;;;;;;;;2.00;0.00;;;;;9.82;83.72;100054.41;4916366;28;68007;-89
2023/01/08 09:56:11;;;;;;;;;1.50;0.00;;;;;9.84;83.39;100054.38;4917319;28;46290;-89
2023/01/08 09:59:27;;;;;;;;;;;;;;;;;;;;;
2023/01/08 10:02:34;;;;;;;;;;;;;;;;;;;;;
2023/01/08 10:05:33;;;;;;;;;2.75;0.00;;;;;9.88;83.15;100051.63;4913090;28;69900;-89
2023/01/08 10:08:18;;;;;;;;;;;;;;;;;;;;;
2023/01/08 10:11:24;;;;;;;;;0.00;0.00;;;;;9.95;82.49;100053.97;4916677;28;71906;-91
2023/01/08 10:17:10;;;;;;;;;0.00;0.00;;;;;10.04;82.52;100049.28;4851964;28;45384;-89
2023/01/08 10:20:15;;;;;;;;;0.50;0.00;;;;;10.20;82.35;100046.13;4844769;29;47882;-90
2023/01/08 10:23:49;;;;;;;;;0.25;0.25;;;;;10.30;81.00;100051.81;4860943;29;45292;-90
2023/01/08 10:26:53;;;;;;;;;2.75;0.00;;;;;10.37;80.95;100048.94;4827087;29;45335;-89
2023/01/08 10:29:51;;;;;;;;;1.00;0.50;;;;;10.42;81.23;100035.75;4830140;29;45317;-90
2023/01/08 10:32:33;;;;;;;;;1.00;1.00;;;;;10.43;80.00;100033.06;4826707;29;45479;-88
2023/01/08 10:35:35;;;;;;;;;0.00;0.00;;;;;10.44;80.04;100034.78;4826321;29;45306;-90
2023/01/08 10:41:38;;;;;;;;;;;;;;;;;;;;;
2023/01/08 10:51:09;;;;;;;;;;;;;;;;;;;;;
2023/01/08 10:57:24;;;;;;;;;1.25;0.75;;;;;11.90;76.74;100001.66;4835636;29;46918;-89
2023/01/08 11:00:20;;;;;;;;;;;;;;;;;;;;;
2023/01/08 11:02:51;;;;;;;;;2.25;1.00;;;;;12.13;75.00;100010.19;4788630;29;69198;-90
2023/01/08 11:15:22;;;;;;;;;;;;;;;;;;;;;
2023/01/08 11:21:35;;;;;;;;;21.00;15.75;;;;;13.42;70.81;99969.00;4776753;29;46827;-90
2023/01/08 11:27:34;;;;;;;;;3.25;1.75;;;;;15.63;65.09;99966.78;4776165;29;45570;-90
2023/01/08 11:30:55;;;;;;;;;;;;;;;;;;;;;
2023/01/08 11:33:59;;;;;;;;;;;;;;;;;;;;;
2023/01/08 11:37:13;;;;;;;;;;;;;;;;;;;;;
2023/01/08 11:40:14;;;;;;;;;;;;;;;;;;;;;
2023/01/08 11:43:15;;;;;;;;;3.00;0.00;;;;;19.90;52.61;99926.03;4890253;29;70723;-89
2023/01/08 11:53:34;;;;;;;;;;;;;;;;;;;;;
2023/01/08 12:06:10;;;;;;;;;;;;;;;;;;;;;
2023/01/08 12:09:44;;;;;;;;;;;;;;;;;;;;;
2023/01/08 12:12:41;;;;;;;;;;;;;;;;;;;;;
2023/01/08 12:19:47;;;;;;;;;;;;;;;;;;;;;
2023/01/08 12:22:32;;;;;;;;;;;;;;;;;;;;;
2023/01/08 12:43:06;;;;;;;;;;;;;;;;;;;;;
2023/01/08 12:53:35;;;;;;;;;;;;;;;;;;;;;
2023/01/08 12:59:34;;;;;;;;;;;;;;;;;;;;;
2023/01/08 13:02:48;;;;;;;;;;;;;;;;;;;;;
2023/01/08 13:15:18;;;;;;;;;;;;;;;;;;;;;
2023/01/08 13:21:21;;;;;;;;;;;;;;;;;;;;;
2023/01/08 13:27:55;;;;;;;;;;;;;;;;;;;;;
2023/01/08 13:31:01;;;;;;;;;;;;;;;;;;;;;
2023/01/08 13:37:14;;;;;;;;;;;;;;;;;;;;;
2023/01/08 13:43:56;;;;;;;;;;;;;;;;;;;;;
2023/01/08 13:47:28;;;;;;;;;;;;;;;;;;;;;
2023/01/08 13:50:15;;;;;;;;;;;;;;;;;;;;;
2023/01/08 13:56:30;;;;;;;;;;;;;;;;;;;;;
2023/01/08 14:03:27;;;;;;;;;;;;;;;;;;;;;
2023/01/08 14:10:02;;;;;;;;;;;;;;;;;;;;;
2023/01/08 14:22:51;;;;;;;;;;;;;;;;;;;;;
2023/01/08 14:38:54;;;;;;;;;;;;;;;;;;;;;
2023/01/08 14:48:39;;;;;;;;;0.25;0.25;;;;;12.34;69.76;99612.50;4845916;29;46452;-93
2023/01/08 14:51:54;;;;;;;;;;;;;;;;;;;;;
2023/01/08 14:58:39;;;;;;;;;;;;;;;;;;;;;
2023/01/08 15:05:17;;;;;;;;;0.00;0.00;;;;;11.56;76.92;99598.34;4772154;29;45626;-92
2023/01/08 15:14:35;;;;;;;;;12.00;8.25;;;;;11.54;78.75;99589.78;4767485;29;46533;-89
2023/01/08 15:21:02;;;;;;;;;;;;;;;;;;;;;
2023/01/08 15:26:58;;;;;;;;;0.25;0.00;;;;;11.57;77.96;99574.81;4791762;29;46321;-90
2023/01/08 15:29:58;;;;;;;;;;;;;;;;;;;;;
2023/01/08 15:32:37;;;;;;;;;;;;;;;;;;;;;
2023/01/08 15:35:24;;;;;;;;;;;;;;;;;;;;;
2023/01/08 15:38:00;;;;;;;;;;;;;;;;;;;;;
2023/01/08 15:40:35;;;;;;;;;0.00;0.00;;;;;11.40;78.23;99574.81;4904029;28;72294;-93
2023/01/08 15:49:20;;;;;;;;;0.00;0.00;;;;;11.36;77.86;99549.84;4909947;28;46859;-81